Flight Track Log - Related Links

Times and Time Zones

All times are in EDT time to prevent confusion due to time zone crossing. See the N662US flight status page for this flight to view local times or setup timezone preferences in your user account.

Time Position Orientation Groundspeed Altitude Reporting Facility
EDT Latitude Longitude Course Direction KTS MPH feet Rate Location/Type
Wed 02:36:50 AM 35.7160 140.4100 149° Southeast 172 198 1,500  Level FlightAware ADS-B
Wed 02:37:20 AM 35.6970 140.4240 149° Southeast 176 203 2,200 1,700 Climbing FlightAware ADS-B
Wed 02:37:50 AM 35.6730 140.4410 150° Southeast 180 207 3,200 1,400 Climbing FlightAware ADS-B
Wed 02:38:20 AM 35.6510 140.4580 148° Southeast 209 241 3,600 960 Climbing FlightAware ADS-B
Wed 02:38:40 AM 35.6320 140.4710 151° Southeast 237 273 4,000 1,154 Climbing FlightAware ADS-B
Wed 02:39:12 AM 35.5990 140.4950 149° Southeast 265 305 4,600 1,742 Climbing FlightAware ADS-B
Wed 02:39:42 AM 35.5660 140.5180 150° Southeast 281 323 5,800 2,333 Climbing FlightAware ADS-B
Wed 02:40:06 AM 35.5410 140.5470 137° Southeast 290 334 6,700 1,375 Climbing FlightAware ADS-B
Wed 02:40:30 AM 35.5320 140.5850 106° East 297 342 6,900 245 Climbing FlightAware ADS-B
Wed 02:40:55 AM 35.5290 140.6220 96° East 296 341 6,900  Level FlightAware ADS-B
Wed 02:41:25 AM 35.5260 140.6740 94° East 297 342 6,900  Level FlightAware ADS-B
Wed 02:41:54 AM 35.5220 140.7210 96° East 296 341 6,900 218 Level FlightAware ADS-B
Wed 02:42:20 AM 35.5190 140.7670 95° East 297 342 7,100 1,821 Climbing FlightAware ADS-B
Wed 02:42:50 AM 35.5140 140.8220 96° East 306 352 8,600 2,704 Climbing FlightAware ADS-B
Wed 02:43:31 AM 35.5090 140.8910 95° East 320 368 10,300 1,747 Climbing FlightAware ADS-B
Wed 02:44:09 AM 35.5040 140.9540 96° East 354 407 10,900 1,370 Climbing FlightAware ADS-B
Wed 02:45:03 AM 35.4920 141.0870 96° East 410 472 12,400 2,092 Climbing FlightAware ADS-B
Wed 02:45:58 AM 35.4570 141.2140 109° East 427 491 14,700 2,400 Climbing FlightAware ADS-B
Wed 02:46:43 AM 35.4260 141.3130 111° Southeast 436 502 16,400 2,250 Climbing FlightAware ADS-B
Wed 02:47:18 AM 35.4000 141.4000 110° East 447 514 17,700 2,100 Climbing FlightAware ADS-B
Wed 02:48:03 AM 35.3670 141.5060 111° Southeast 461 531 19,200 1,793 Climbing FlightAware ADS-B
Wed 02:48:45 AM 35.3370 141.6050 110° East 473 544 20,300 1,200 Climbing FlightAware ADS-B
Wed 02:49:38 AM 35.2990 141.7330 110° East 479 551 21,100 1,706 Climbing FlightAware ADS-B
Wed 02:50:34 AM 35.2510 141.8810 112° Southeast 498 573 23,400 2,000 Climbing FlightAware ADS-B
Wed 02:51:23 AM 35.2060 142.0250 111° Southeast 511 588 24,600 1,348 Climbing FlightAware ADS-B
Wed 02:52:03 AM 35.1760 142.1250 110° East 525 604 25,400 878 Climbing FlightAware ADS-B
Wed 02:52:45 AM 35.1610 142.2460 99° East 528 608 25,800 1,367 Climbing FlightAware ADS-B
Wed 02:53:22 AM 35.1730 142.3730 83° East 535 616 27,200 1,143 Climbing FlightAware ADS-B
Wed 02:54:09 AM 35.1790 142.4850 86° East 535 616 27,400 571 Climbing FlightAware ADS-B
Wed 02:54:46 AM 35.1870 142.6320 86° East 543 625 28,000 444 Climbing FlightAware ADS-B
Wed 02:55:30 AM 35.1940 142.7460 86° East 543 625 28,000  Level FlightAware ADS-B
Wed 02:56:18 AM 35.2010 142.8720 86° East 543 625 28,000  Level FlightAware ADS-B
Wed 02:56:54 AM 35.2060 142.9650 86° East 543 625 28,000  Level FlightAware ADS-B
Wed 02:57:42 AM 35.2130 143.0910 86° East 543 625 28,000  Level FlightAware ADS-B
Wed 02:58:19 AM 35.2190 143.1870 86° East 543 625 28,000 Level FlightAware ADS-B
Wed 04:59:17 AM 36.1000 165.0000 90° East 561 646 29,000 Climbing Oakland Oceanic (ODAPS)
Wed 05:03:27 AM 36.1000 165.8167 90° East 558 642 29,000  Level Oakland Oceanic (ODAPS)
Wed 05:25:55 AM 36.0000 170.0000 73° East 592 681 29,000  Level Oakland Oceanic (ODAPS)
Wed 05:30:11 AM 36.2000 170.8000 73° East 593 682 29,000 32 Level Oakland Oceanic (ODAPS)
Wed 05:56:48 AM 37.2833 175.8000 77° East 596 686 30,000 21 Climbing Oakland Oceanic (ODAPS)
Wed 06:18:03 AM 38.0000 -180.0000 80° East 613 705 30,000 38 Level Oakland Oceanic (ODAPS)
Wed 06:23:27 AM 38.1500 -178.8667 80° East 594 684 31,000 23 Climbing Oakland Oceanic (ODAPS)
Wed 07:01:27 AM 38.9333 -171.0500 85° East 622 716 31,000  Level Oakland Oceanic (ODAPS)
Wed 07:03:19 AM 38.9500 -170.9333 86° East 613 705 31,000  Level Oakland Oceanic (ODAPS)
Wed 07:05:36 AM 39.0000 -170.0000 65° Northeast 606 697 31,000 371 Level Oakland Oceanic (ODAPS)
Wed 07:16:47 AM 39.7833 -167.7500 67° East 599 689 36,000 132 Climbing Oakland Oceanic (ODAPS)
Wed 07:43:27 AM 41.4167 -162.2500 70° East 597 687 36,000  Level Oakland Oceanic (ODAPS)
Wed 07:54:15 AM 42.0000 -160.0000 64° Northeast 584 672 36,000 38 Level Oakland Oceanic (ODAPS)
Wed 08:10:07 AM 43.1000 -156.7833 66° East 579 666 37,000 23 Climbing Oakland Oceanic (ODAPS)
Wed 08:36:55 AM 44.6833 -151.2667 70° East 569 655 37,000  Level Oakland Oceanic (ODAPS)
Wed 08:43:00 AM 45.0000 -150.0000 70° East 561 646 37,000  Level Oakland Oceanic (ODAPS)
Wed 09:03:35 AM 46.0167 -145.5833 74° East 564 649 37,000  Level Oakland Oceanic (ODAPS)
Wed 09:09:00 AM 46.2676 -144.3131 75° East 564 649 37,000  Level FlightAware Transoceanic
Wed 09:10:00 AM 46.3080 -144.1003 75° East 564 649 37,000  Level FlightAware Transoceanic
Wed 09:11:00 AM 46.3480 -143.8872 75° East 564 649 37,000  Level FlightAware Transoceanic
Wed 09:12:00 AM 46.3877 -143.6738 75° East 564 649 37,000  Level FlightAware Transoceanic
Wed 09:13:00 AM 46.4269 -143.4600 75° East 564 649 37,000  Level FlightAware Transoceanic
Wed 09:14:00 AM 46.4658 -143.2460 75° East 564 649 37,000  Level FlightAware Transoceanic
Wed 09:15:00 AM 46.5042 -143.0316 75° East 564 649 37,000  Level FlightAware Transoceanic
Wed 09:16:00 AM 46.5423 -142.8169 76° East 564 649 37,000  Level FlightAware Transoceanic
Wed 09:17:00 AM 46.5799 -142.6020 76° East 564 649 37,000  Level FlightAware Transoceanic
Wed 09:18:00 AM 46.6172 -142.3867 76° East 564 649 37,000  Level FlightAware Transoceanic
Wed 09:19:00 AM 46.6540 -142.1712 76° East 564 649 37,000  Level FlightAware Transoceanic
Wed 09:20:00 AM 46.6905 -141.9553 76° East 564 649 37,000  Level FlightAware Transoceanic
Wed 09:21:00 AM 46.7265 -141.7392 76° East 564 649 37,000  Level FlightAware Transoceanic
Wed 09:22:00 AM 46.7621 -141.5228 77° East 564 649 37,000  Level FlightAware Transoceanic
Wed 09:23:00 AM 46.7974 -141.3061 77° East 564 649 37,000  Level FlightAware Transoceanic
Wed 09:24:00 AM 46.8321 -141.0891 77° East 564 649 37,000  Level FlightAware Transoceanic
Wed 09:25:00 AM 46.8666 -140.8718 77° East 564 649 37,000  Level FlightAware Transoceanic
Wed 09:26:00 AM 46.9005 -140.6543 77° East 564 649 37,000  Level FlightAware Transoceanic
Wed 09:27:00 AM 46.9341 -140.4364 77° East 564 649 37,000  Level FlightAware Transoceanic
Wed 09:28:00 AM 46.9673 -140.2184 78° East 564 649 37,000  Level FlightAware Transoceanic
Wed 09:28:59 AM 47.0000 -140.0000 77° East 549 632 37,000  Level Oakland Oceanic (ODAPS)
Wed 09:29:00 AM 47.0000 -140.0000 77° East 564 649 37,000  Level FlightAware Transoceanic
Wed 09:30:00 AM 47.0351 -139.7758 77° East 564 649 37,000  Level FlightAware Transoceanic
Wed 09:30:12 AM 47.0500 -139.7333 77° East 547 629 37,000  Level Oakland Oceanic (ODAPS)
Wed 09:31:00 AM 47.0698 -139.5513 77° East 564 649 37,000  Level FlightAware Transoceanic
Wed 09:32:00 AM 47.1041 -139.3264 77° East 564 649 37,000  Level FlightAware Transoceanic
Wed 09:33:00 AM 47.1379 -139.1013 78° East 564 649 37,000  Level FlightAware Transoceanic
Wed 09:34:00 AM 47.1712 -138.8760 78° East 564 649 37,000  Level FlightAware Transoceanic
Wed 09:35:00 AM 47.1990 -138.6859 78° East 549 632 37,000  Level FlightAware Transoceanic
Wed 09:36:00 AM 47.2435 -138.4250 78° East 547 629 37,000  Level FlightAware Transoceanic
Wed 09:37:00 AM 47.2743 -138.2061 78° East 547 629 37,000  Level FlightAware Transoceanic
Wed 09:38:00 AM 47.3046 -137.9868 79° East 547 629 37,000  Level FlightAware Transoceanic
Wed 09:39:00 AM 47.3346 -137.7674 79° East 547 629 37,000  Level FlightAware Transoceanic
Wed 09:40:00 AM 47.3641 -137.5477 79° East 547 629 37,000  Level FlightAware Transoceanic
Wed 09:41:00 AM 47.3932 -137.3277 79° East 547 629 37,000  Level FlightAware Transoceanic
Wed 09:42:00 AM 47.4219 -137.1075 79° East 547 629 37,000  Level FlightAware Transoceanic
Wed 09:43:00 AM 47.4502 -136.8871 79° East 547 629 37,000  Level FlightAware Transoceanic
Wed 09:44:00 AM 47.4781 -136.6664 80° East 547 629 37,000  Level FlightAware Transoceanic
Wed 09:45:00 AM 47.5055 -136.4455 80° East 547 629 37,000  Level FlightAware Transoceanic
Wed 09:46:00 AM 47.5325 -136.2243 80° East 547 629 37,000  Level FlightAware Transoceanic
Wed 09:47:00 AM 47.5591 -136.0030 80° East 547 629 37,000  Level FlightAware Transoceanic
Wed 09:48:00 AM 47.5852 -135.7814 80° East 547 629 37,000  Level FlightAware Transoceanic
Wed 09:49:00 AM 47.6109 -135.5596 80° East 547 629 37,000  Level FlightAware Transoceanic
Wed 09:50:00 AM 47.6362 -135.3376 80° East 547 629 37,000  Level FlightAware Transoceanic
Wed 09:51:00 AM 47.6611 -135.1153 81° East 547 629 37,000  Level FlightAware Transoceanic
Wed 09:52:00 AM 47.6855 -134.8929 81° East 547 629 37,000  Level FlightAware Transoceanic
Wed 09:53:00 AM 47.7095 -134.6702 81° East 547 629 37,000  Level FlightAware Transoceanic
Wed 09:54:00 AM 47.7331 -134.4474 81° East 547 629 37,000  Level FlightAware Transoceanic
Wed 09:55:00 AM 47.7562 -134.2243 81° East 547 629 37,000  Level FlightAware Transoceanic
Wed 09:56:00 AM 47.7789 -134.0011 81° East 547 629 37,000 550 Level FlightAware Transoceanic
Wed 09:56:49 AM 47.8000 -133.8500 82° East 538 619 38,000  Climbing Oakland Oceanic (ODAPS)
Wed 09:57:00 AM 47.8012 -133.7776 82° East 547 629 37,000 -845 Descending FlightAware Transoceanic
Wed 09:58:00 AM 47.8231 -133.5540 82° East 547 629 37,000  Level FlightAware Transoceanic
Wed 09:59:00 AM 47.8445 -133.3302 82° East 547 629 37,000  Level FlightAware Transoceanic
Wed 10:00:00 AM 47.8654 -133.1062 82° East 547 629 37,000  Level FlightAware Transoceanic
Wed 10:01:00 AM 47.8860 -132.8820 82° East 547 629 37,000  Level FlightAware Transoceanic
Wed 10:02:00 AM 47.9061 -132.6576 82° East 547 629 37,000 500 Level FlightAware Transoceanic
Wed 10:03:00 AM 47.9256 -132.4621 83° East 538 619 38,000 541 Climbing FlightAware Transoceanic
Wed 10:03:51 AM 47.9167 -132.3167 75° East 590 679 38,000  Level Vancouver Center
Wed 10:04:00 AM 47.9449 -132.2302 83° East 538 619 38,000  Level FlightAware Transoceanic
Wed 10:04:51 AM 47.9333 -132.0833 84° East 540 621 38,000  Level Vancouver Center
Wed 10:05:00 AM 47.9637 -131.9981 83° East 538 619 38,000  Level FlightAware Transoceanic
Wed 10:05:51 AM 47.9667 -131.8833 76° East 540 621 38,000  Level Vancouver Center
Wed 10:06:00 AM 47.9821 -131.7658 83° East 538 619 38,000  Level FlightAware Transoceanic
Wed 10:06:51 AM 47.9833 -131.6333 84° East 540 621 38,000  Level Vancouver Center
Wed 10:07:00 AM 48.0000 -131.5333 75° East 538 619 38,000  Level FlightAware Transoceanic
Wed 10:07:51 AM 48.0167 -131.4333 76° East 540 621 38,000  Level Vancouver Center
Wed 10:08:00 AM 48.0400 -131.3120 75° East 538 619 38,000  Level FlightAware Transoceanic
Wed 10:08:51 AM 48.0500 -131.2000 78° East 560 644 38,000  Level Vancouver Center
Wed 10:09:00 AM 48.0795 -131.0902 75° East 538 619 38,000  Level FlightAware Transoceanic
Wed 10:10:00 AM 48.0734 -130.9573 82° East  Level FlightAware Approximate
Wed 10:10:51 AM 48.1167 -130.7833 82° East 530 610 38,000  Level Vancouver Center
Wed 10:11:51 AM 48.1500 -130.5833 76° East 530 610 38,000  Level Vancouver Center
Wed 10:12:51 AM 48.1833 -130.3667 77° East 530 610 38,000  Level Vancouver Center
Wed 10:13:51 AM 48.2167 -130.1333 78° East 530 610 38,000  Level Vancouver Center
Wed 10:14:51 AM 48.2167 -129.9333 90° East 530 610 38,000 -350 Level Vancouver Center
Wed 10:15:51 AM 48.2333 -129.6833 84° East 530 610 37,300 -500 Descending Vancouver Center
Wed 10:16:51 AM 48.2500 -129.4833 83° East 530 610 37,000 -150 Descending Vancouver Center
Wed 10:17:51 AM 48.2500 -129.2667 90° East 530 610 37,000  Level Vancouver Center
Wed 10:18:51 AM 48.2667 -129.0333 84° East 530 610 37,000  Level Vancouver Center
Wed 10:24:31 AM 48.3350 -127.7890 84° East 528 608 37,000  Level FlightAware ADS-B
Wed 10:25:29 AM 48.3350 -127.5880 90° East 528 608 37,000  Level FlightAware ADS-B
Wed 10:26:11 AM 48.3340 -127.4090 90° East 527 606 37,000  Level FlightAware ADS-B
Wed 10:26:51 AM 48.3340 -127.2740 90° East 527 606 37,000  Level FlightAware ADS-B
Wed 10:27:31 AM 48.3340 -127.1280 90° East 527 606 37,000  Level FlightAware ADS-B
Wed 10:28:16 AM 48.3340 -126.9570 90° East 527 606 37,000  Level FlightAware ADS-B
Wed 10:29:11 AM 48.3330 -126.7640 90° East 526 605 37,000  Level FlightAware ADS-B
Wed 10:29:54 AM 48.3320 -126.5970 90° East 525 604 37,000  Level FlightAware ADS-B
Wed 10:30:18 AM 48.3310 -126.5090 91° East 525 604 37,000  Level FlightAware ADS-B
Wed 10:31:06 AM 48.3290 -126.3340 91° East 526 605 37,000  Level FlightAware ADS-B
Wed 10:31:46 AM 48.3280 -126.1890 91° East 526 605 37,000  Level FlightAware ADS-B
Wed 10:32:28 AM 48.3260 -126.0360 91° East 524 603 37,000  Level FlightAware ADS-B
Wed 10:33:11 AM 48.3240 -125.8800 91° East 523 602 37,000  Level FlightAware ADS-B
Wed 10:33:52 AM 48.3220 -125.7350 91° East 522 601 37,000  Level FlightAware ADS-B
Wed 10:34:38 AM 48.3190 -125.5610 91° East 522 601 37,000  Level FlightAware ADS-B
Wed 10:35:18 AM 48.3170 -125.4170 91° East 522 601 37,000  Level FlightAware ADS-B
Wed 10:36:00 AM 48.3140 -125.2680 92° East 522 601 37,000 -145 Level FlightAware ADS-B
Wed 10:36:41 AM 48.3110 -125.1210 92° East 513 590 36,800 -651 Descending FlightAware ADS-B
Wed 10:37:23 AM 48.3080 -124.9740 92° East 500 575 36,100 -1,229 Descending FlightAware ADS-B
Wed 10:38:04 AM 48.3050 -124.8290 92° East 496 571 35,100 -1,241 Descending FlightAware ADS-B
Wed 10:38:50 AM 48.3010 -124.6760 92° East 488 562 34,300 -1,024 Descending FlightAware ADS-B
Wed 10:39:26 AM 48.2880 -124.5520 99° East 483 556 33,700 -1,059 Descending FlightAware ADS-B
Wed 10:39:58 AM 48.2750 -124.4480 101° East 477 549 33,100 -1,159 Descending FlightAware ADS-B
Wed 10:40:54 AM 48.2510 -124.2680 101° East 471 542 32,000 -1,109 Descending FlightAware ADS-B
Wed 10:41:30 AM 48.2340 -124.1540 103° East 465 535 31,400 -1,037 Descending FlightAware ADS-B
Wed 10:42:15 AM 48.2140 -124.0130 102° East 458 527 30,600 -1,079 Descending FlightAware ADS-B
Wed 10:42:59 AM 48.1940 -123.8780 102° East 453 521 29,800 -1,116 Descending FlightAware ADS-B
Wed 10:43:41 AM 48.1750 -123.7530 103° East 445 512 29,000 -1,500 Descending FlightAware ADS-B
Wed 10:44:23 AM 48.1560 -123.6250 102° East 436 502 27,700 -1,880 Descending FlightAware ADS-B
Wed 10:45:04 AM 48.1390 -123.5090 102° East 428 493 26,400 -1,898 Descending FlightAware ADS-B
Wed 10:46:01 AM 48.1150 -123.3460 102° East 418 481 24,600 -1,871 Descending FlightAware ADS-B
Wed 10:46:37 AM 48.0990 -123.2430 103° East 411 473 23,500 -1,857 Descending FlightAware ADS-B
Wed 10:47:25 AM 48.0800 -123.1140 102° East 401 461 22,000 -1,846 Descending FlightAware ADS-B
Wed 10:48:08 AM 48.0620 -123.0020 103° East 394 453 20,700 -1,786 Descending FlightAware ADS-B
Wed 10:48:49 AM 48.0450 -122.8940 103° East 384 442 19,500 -1,895 Descending FlightAware ADS-B
Wed 10:49:05 AM 48.0300 -122.8550 120° Southeast 378 435 18,900 -1,846 Descending FlightAware ADS-B
Wed 10:49:41 AM 47.9800 -122.7960 142° Southeast 367 422 17,900 -1,778 Descending FlightAware ADS-B
Wed 10:50:26 AM 47.9160 -122.7390 149° Southeast 366 421 16,500 -1,835 Descending FlightAware ADS-B
Wed 10:51:06 AM 47.8600 -122.6890 149° Southeast 362 417 15,300 -1,694 Descending FlightAware ADS-B
Wed 10:51:51 AM 47.7960 -122.6310 149° Southeast 348 400 14,100 -1,412 Descending FlightAware ADS-B
Wed 10:52:31 AM 47.7470 -122.5870 149° Southeast 343 395 13,300 -1,390 Descending FlightAware ADS-B
Wed 10:53:13 AM 47.6860 -122.5320 149° Southeast 328 377 12,200 -712 Descending FlightAware ADS-B
Wed 10:54:29 AM 47.6020 -122.4550 148° Southeast 316 364 11,900 -1,419 Descending FlightAware ADS-B
Wed 10:54:46 AM 47.5720 -122.4570 183° South 314 361 10,000 -2,714 Descending FlightAware ADS-B
Wed 10:55:11 AM 47.5450 -122.4320 148° Southeast 314 361 10,000  Level FlightAware ADS-B
Wed 10:55:48 AM 47.5070 -122.3960 147° Southeast 314 361 10,000  Level FlightAware ADS-B
Wed 10:56:13 AM 47.4800 -122.3720 149° Southeast 314 361 10,000  Level FlightAware ADS-B
Wed 10:56:41 AM 47.4510 -122.3450 148° Southeast 314 361 10,000 -4,189 Level FlightAware ADS-B
Wed 10:57:06 AM 47.4020 -122.4620 238° Southwest 254 292 6,300 -4,189 Descending FlightAware ADS-B
Wed 10:57:34 AM 47.3740 -122.4640 183° South 254 292 6,300 -1,726 Level FlightAware ADS-B
Wed 10:58:19 AM 47.3175 -122.4639 183° South 246 283 4,200 -1,755 Descending Seattle Center
Wed 10:59:20 AM 47.2828 -122.4022 130° Southeast 222 255 3,200 -984 Descending Seattle Center

Login

Don't have an account? Register now (free) for customized features, flight alerts, and more!